Time;durP1;ratioP1;P1;durP2;ratioP2;P2;SDS_P1;SDS_P2;PMS_P1;PMS_P2;Temp;Humidity;BMP_temperature;BMP_pressure;BME280_temperature;BME280_humidity;BME280_pressure;Samples;Min_cycle;Max_cycle;Signal;HPM_P1;HPM_P2
2022/07/17 00:01:15;;;;;;;22.20;20.98;;;24.50;36.90;;;;;;5018670;28;20524;-81
2022/07/17 00:03:41;;;;;;;21.80;20.42;;;24.40;37.10;;;;;;5014759;28;20379;-81
2022/07/17 00:06:07;;;;;;;22.75;21.25;;;24.50;37.10;;;;;;5035986;28;20033;-81
2022/07/17 00:08:33;;;;;;;22.35;21.05;;;24.50;36.80;;;;;;5035367;28;20037;-81
2022/07/17 00:10:59;;;;;;;22.83;21.30;;;24.60;36.70;;;;;;5016433;28;20037;-81
2022/07/17 00:13:25;;;;;;;21.83;20.63;;;24.80;36.50;;;;;;5015742;28;20507;-81
2022/07/17 00:15:51;;;;;;;23.02;21.30;;;24.90;36.40;;;;;;5033744;28;20049;-81
2022/07/17 00:18:17;;;;;;;22.10;20.77;;;24.80;36.40;;;;;;5016979;28;20399;-81
2022/07/17 00:20:44;;;;;;;21.13;19.85;;;24.70;36.60;;;;;;5019713;28;20384;-81
2022/07/17 00:23:10;;;;;;;21.08;19.98;;;24.60;37.20;;;;;;5018727;28;20045;-81
2022/07/17 00:25:36;;;;;;;20.92;19.27;;;24.40;37.40;;;;;;5018527;28;20049;-81
2022/07/17 00:28:03;;;;;;;21.92;20.63;;;24.50;37.30;;;;;;5031320;28;20059;-81
2022/07/17 00:30:29;;;;;;;20.95;19.73;;;24.60;37.20;;;;;;5032485;28;20045;-81
2022/07/17 00:32:55;;;;;;;22.00;20.48;;;24.70;37.10;;;;;;5019634;28;20032;-81
2022/07/17 00:35:21;;;;;;;21.17;19.80;;;24.70;37.00;;;;;;5042837;28;20037;-81
2022/07/17 00:37:48;;;;;;;19.95;18.75;;;24.60;37.00;;;;;;5040698;28;20488;-82
2022/07/17 00:40:18;;;;;;;20.48;19.15;;;24.40;37.40;;;;;;5032299;28;20391;-82
2022/07/17 00:42:44;;;;;;;19.17;18.08;;;24.30;38.00;;;;;;5030573;28;20022;-82
2022/07/17 00:45:11;;;;;;;20.15;18.55;;;24.10;38.40;;;;;;5033750;28;20029;-82
2022/07/17 00:47:57;;;;;;;19.38;17.88;;;24.10;38.40;;;;;;5035431;28;20037;-82
2022/07/17 00:50:25;;;;;;;19.48;18.38;;;24.10;38.60;;;;;;5035546;28;20045;-82
2022/07/17 00:52:51;;;;;;;18.92;17.83;;;24.10;38.50;;;;;;5035236;28;20021;-82
2022/07/17 00:55:17;;;;;;;19.75;18.45;;;24.10;38.50;;;;;;5036070;28;20480;-82
2022/07/17 00:57:45;;;;;;;19.83;18.65;;;24.10;38.20;;;;;;5030459;28;20383;-82
2022/07/17 01:00:11;;;;;;;21.00;19.50;;;24.10;38.30;;;;;;5034453;28;20040;-81
2022/07/17 01:02:38;;;;;;;20.90;19.42;;;24.10;38.30;;;;;;5036323;28;20372;-82
2022/07/17 01:05:05;;;;;;;20.55;19.17;;;24.10;38.40;;;;;;5031795;28;20037;-82
2022/07/17 01:07:31;;;;;;;22.17;20.88;;;24.10;38.30;;;;;;5035784;28;20041;-82
2022/07/17 01:09:57;;;;;;;20.92;19.73;;;24.20;38.60;;;;;;5030177;28;20046;-82
2022/07/17 01:12:24;;;;;;;22.00;20.55;;;24.10;38.30;;;;;;5032784;28;20033;-82
2022/07/17 01:14:53;;;;;;;20.27;19.27;;;24.20;38.30;;;;;;5035309;28;20026;-82
2022/07/17 01:17:19;;;;;;;20.65;19.55;;;24.30;38.10;;;;;;5035058;28;20034;-82
2022/07/17 01:19:45;;;;;;;20.58;19.30;;;24.20;37.90;;;;;;5015271;28;20030;-82
2022/07/17 01:22:11;;;;;;;21.30;19.98;;;24.10;38.40;;;;;;5017668;28;20120;-82
2022/07/17 01:24:41;;;;;;;20.92;19.83;;;24.00;38.60;;;;;;5029400;28;20515;-82
2022/07/17 01:27:07;;;;;;;20.38;19.27;;;24.00;38.50;;;;;;5058123;28;20063;-82
2022/07/17 01:29:36;;;;;;;21.30;19.98;;;23.80;38.80;;;;;;5025597;28;20037;-82
2022/07/17 01:32:02;;;;;;;20.95;19.75;;;23.80;38.80;;;;;;5034739;28;20037;-82
2022/07/17 01:34:28;;;;;;;20.50;19.30;;;23.80;39.00;;;;;;5030564;28;20026;-82
2022/07/17 01:36:54;;;;;;;19.40;18.25;;;23.80;38.90;;;;;;5027002;28;20049;-82
2022/07/17 01:39:52;;;;;;;19.20;18.02;;;23.70;39.10;;;;;;5031691;28;20029;-82
2022/07/17 01:42:09;;;;;;;19.55;18.27;;;23.50;39.60;;;;;;5032435;28;20035;-82
2022/07/17 01:44:35;;;;;;;20.42;19.05;;;23.30;39.90;;;;;;5034087;28;20376;-82
2022/07/17 01:47:01;;;;;;;20.02;18.83;;;23.30;40.00;;;;;;5014336;28;20627;-82
2022/07/17 01:49:28;;;;;;;19.67;18.38;;;23.30;40.00;;;;;;5000688;28;20041;-82
2022/07/17 01:51:54;;;;;;;20.02;18.85;;;23.40;40.00;;;;;;5012437;28;20503;-82
2022/07/17 01:54:20;;;;;;;19.70;18.50;;;23.40;39.90;;;;;;5014892;28;20452;-82
2022/07/17 01:56:46;;;;;;;19.95;18.70;;;23.40;40.00;;;;;;5017238;28;20038;-82
2022/07/17 01:59:12;;;;;;;19.95;18.70;;;23.50;39.80;;;;;;5034602;28;20056;-81
2022/07/17 02:01:38;;;;;;;20.60;19.40;;;23.60;39.80;;;;;;5030231;28;20037;-82
2022/07/17 02:04:04;;;;;;;20.60;19.30;;;23.70;39.40;;;;;;5033710;28;20031;-82
2022/07/17 02:06:30;;;;;;;20.38;19.27;;;23.80;39.30;;;;;;5030915;28;20508;-82
2022/07/17 02:08:56;;;;;;;19.48;18.23;;;23.50;39.70;;;;;;5033956;28;20117;-82
2022/07/17 02:11:22;;;;;;;19.27;17.98;;;23.30;40.50;;;;;;5014403;28;20037;-82
2022/07/17 02:13:48;;;;;;;19.02;17.73;;;23.10;40.80;;;;;;5014360;28;20025;-81
2022/07/17 02:16:14;;;;;;;18.45;17.35;;;23.00;41.10;;;;;;5013860;28;20041;-82
2022/07/17 02:18:41;;;;;;;17.50;16.50;;;23.00;41.20;;;;;;5030407;28;20029;-82
2022/07/17 02:21:07;;;;;;;17.98;16.90;;;22.90;41.60;;;;;;5049151;28;20041;-81
2022/07/17 02:23:36;;;;;;;18.13;16.98;;;23.00;41.60;;;;;;5024390;28;20041;-81
2022/07/17 02:26:02;;;;;;;18.00;16.88;;;23.00;41.50;;;;;;5034351;28;20419;-81
2022/07/17 02:28:29;;;;;;;16.92;16.02;;;22.90;41.80;;;;;;5030149;28;20037;-81
2022/07/17 02:30:55;;;;;;;17.45;16.45;;;22.80;42.20;;;;;;5013242;28;20034;-82
2022/07/17 02:33:21;;;;;;;17.05;16.15;;;22.70;42.50;;;;;;5012354;28;20042;-82
2022/07/17 02:35:47;;;;;;;17.33;16.15;;;22.70;42.60;;;;;;5043769;28;20029;-82
2022/07/17 02:38:13;;;;;;;17.58;16.48;;;22.70;42.60;;;;;;5036509;28;20052;-82
2022/07/17 02:40:41;;;;;;;17.77;16.73;;;22.70;42.60;;;;;;5030209;28;20033;-82
2022/07/17 02:43:07;;;;;;;17.77;16.77;;;22.90;42.90;;;;;;5013911;28;20029;-82
2022/07/17 02:45:33;;;;;;;18.02;16.90;;;23.00;42.40;;;;;;5011827;28;20538;-81
2022/07/17 02:48:00;;;;;;;16.70;15.60;;;22.80;42.70;;;;;;5033745;28;20045;-82
2022/07/17 02:50:26;;;;;;;18.00;16.63;;;22.60;43.30;;;;;;5013847;28;20034;-82
2022/07/17 02:52:53;;;;;;;16.67;15.70;;;22.40;43.60;;;;;;5035522;28;20032;-82
2022/07/17 02:55:20;;;;;;;17.27;16.38;;;22.40;43.90;;;;;;5026127;28;20052;-81
2022/07/17 02:57:48;;;;;;;18.08;16.88;;;22.40;43.80;;;;;;5012757;28;20033;-82
2022/07/17 03:00:15;;;;;;;16.88;15.88;;;22.40;43.90;;;;;;5015123;28;20037;-82
2022/07/17 03:02:45;;;;;;;17.33;16.30;;;22.40;43.90;;;;;;5015978;28;20049;-82
2022/07/17 03:05:12;;;;;;;17.15;16.15;;;22.30;44.00;;;;;;5030091;28;20472;-81
2022/07/17 03:07:38;;;;;;;17.60;16.40;;;22.40;43.90;;;;;;5032346;28;20038;-81
2022/07/17 03:10:04;;;;;;;17.63;16.20;;;22.30;44.00;;;;;;5029069;28;20037;-81
2022/07/17 03:12:30;;;;;;;16.67;15.65;;;22.40;44.00;;;;;;5029070;28;20053;-81
2022/07/17 03:14:56;;;;;;;17.45;15.85;;;22.30;44.40;;;;;;5017673;28;20045;-81
2022/07/17 03:17:23;;;;;;;16.95;15.68;;;22.10;44.80;;;;;;5033466;28;20045;-81
2022/07/17 03:19:49;;;;;;;16.55;15.43;;;22.10;45.00;;;;;;5017130;28;20030;-81
2022/07/17 03:22:15;;;;;;;16.90;15.85;;;21.90;45.50;;;;;;5033422;28;20033;-81
2022/07/17 03:24:43;;;;;;;15.95;14.90;;;21.90;45.50;;;;;;5032344;28;20050;-81
2022/07/17 03:27:09;;;;;;;16.95;15.75;;;21.90;45.70;;;;;;5037332;28;20064;-81
2022/07/17 03:29:35;;;;;;;17.70;16.60;;;21.90;45.80;;;;;;5037903;28;20017;-81
2022/07/17 03:32:01;;;;;;;16.00;14.88;;;21.90;45.90;;;;;;5016996;28;20061;-81
2022/07/17 03:34:27;;;;;;;16.33;15.32;;;21.80;46.30;;;;;;5018374;28;20029;-81
2022/07/17 03:36:53;;;;;;;15.93;14.82;;;21.70;46.40;;;;;;5046437;28;20041;-81
2022/07/17 03:39:19;;;;;;;16.52;15.32;;;21.60;46.70;;;;;;5017715;28;20333;-81
2022/07/17 03:41:45;;;;;;;15.98;15.07;;;21.60;46.70;;;;;;5037987;28;20029;-81
2022/07/17 03:44:11;;;;;;;16.17;14.93;;;21.70;46.70;;;;;;5019516;28;20052;-81
2022/07/17 03:46:38;;;;;;;15.50;14.50;;;21.60;46.80;;;;;;5032757;28;20476;-81
2022/07/17 03:49:04;;;;;;;15.63;14.55;;;21.60;47.00;;;;;;5036421;28;20037;-80
2022/07/17 03:51:30;;;;;;;16.20;15.10;;;21.50;47.20;;;;;;4998637;28;20033;-81
2022/07/17 03:53:56;;;;;;;16.02;15.10;;;21.50;47.30;;;;;;5020237;28;20034;-81
2022/07/17 03:56:22;;;;;;;16.23;15.23;;;21.60;47.30;;;;;;5037299;28;20072;-81
2022/07/17 03:58:48;;;;;;;15.20;14.20;;;21.60;47.10;;;;;;5019197;28;20400;-81
2022/07/17 04:01:14;;;;;;;16.25;15.00;;;21.60;47.10;;;;;;5016141;28;20029;-81
2022/07/17 04:03:40;;;;;;;16.75;15.65;;;21.70;46.90;;;;;;5014794;28;20492;-81
2022/07/17 04:06:07;;;;;;;16.00;15.07;;;21.70;46.80;;;;;;5015941;28;20025;-81
2022/07/17 04:08:33;;;;;;;16.17;15.18;;;21.70;46.80;;;;;;5015547;28;20489;-81
2022/07/17 04:10:59;;;;;;;16.40;15.35;;;21.60;47.40;;;;;;5015966;28;20034;-81
2022/07/17 04:13:25;;;;;;;16.88;15.48;;;21.70;47.20;;;;;;5035592;28;20029;-81
2022/07/17 04:15:57;;;;;;;15.73;14.90;;;21.80;46.90;;;;;;5014037;28;20037;-80
2022/07/17 04:18:24;;;;;;;15.85;14.95;;;21.80;46.80;;;;;;5032018;28;20060;-81
2022/07/17 04:20:51;;;;;;;16.60;15.52;;;21.80;47.00;;;;;;5037237;28;20063;-81
2022/07/17 04:23:17;;;;;;;16.73;15.73;;;21.80;47.70;;;;;;5018976;28;20033;-81
2022/07/17 04:25:43;;;;;;;16.58;15.35;;;21.70;47.40;;;;;;5002287;28;20033;-81
2022/07/17 04:28:10;;;;;;;16.60;15.60;;;21.60;47.60;;;;;;5015200;28;20036;-81
2022/07/17 04:30:36;;;;;;;15.95;15.00;;;21.70;47.70;;;;;;5029942;28;20037;-81
2022/07/17 04:33:02;;;;;;;16.25;15.15;;;21.60;47.60;;;;;;5037244;28;20052;-81
2022/07/17 04:35:28;;;;;;;16.27;15.15;;;21.60;47.60;;;;;;5043195;28;20388;-81
2022/07/17 04:37:55;;;;;;;16.13;15.13;;;21.60;47.90;;;;;;5023906;28;20054;-81
2022/07/17 04:40:21;;;;;;;16.48;15.38;;;21.50;48.00;;;;;;5036388;28;20452;-81
2022/07/17 04:42:47;;;;;;;16.00;14.93;;;21.50;48.00;;;;;;5014996;28;20036;-81
2022/07/17 04:45:13;;;;;;;15.82;14.80;;;21.50;48.10;;;;;;5016958;28;20212;-80
2022/07/17 04:47:40;;;;;;;16.13;14.73;;;21.50;48.30;;;;;;5035537;28;20049;-81
2022/07/17 04:50:06;;;;;;;15.75;14.75;;;21.50;48.30;;;;;;5031744;28;20017;-81
2022/07/17 04:52:33;;;;;;;15.35;14.35;;;21.50;48.50;;;;;;5032472;28;20497;-80
2022/07/17 04:54:59;;;;;;;16.00;14.95;;;21.50;48.70;;;;;;5031083;28;20403;-81
2022/07/17 04:57:25;;;;;;;16.88;15.63;;;21.50;48.80;;;;;;5013706;28;20049;-80
2022/07/17 04:59:51;;;;;;;15.15;14.30;;;21.40;49.00;;;;;;5036177;28;20473;-80
2022/07/17 05:02:17;;;;;;;16.27;14.73;;;21.30;49.40;;;;;;5015204;28;20037;-81
2022/07/17 05:04:44;;;;;;;15.52;14.55;;;21.30;49.40;;;;;;5032144;28;20033;-81
2022/07/17 05:07:10;;;;;;;15.70;14.75;;;21.30;49.10;;;;;;5001461;28;20068;-80
2022/07/17 05:09:36;;;;;;;15.73;14.48;;;21.20;49.60;;;;;;5030161;28;20034;-81
2022/07/17 05:12:03;;;;;;;16.08;15.10;;;21.20;49.60;;;;;;5036802;28;20048;-81
2022/07/17 05:14:29;;;;;;;15.65;14.68;;;21.20;49.90;;;;;;5015488;28;20026;-81
2022/07/17 05:16:55;;;;;;;15.80;14.60;;;21.20;49.80;;;;;;5030935;28;20045;-81
2022/07/17 05:19:22;;;;;;;16.02;15.02;;;21.20;50.00;;;;;;5017756;28;20037;-80
2022/07/17 05:21:49;;;;;;;15.95;14.98;;;21.30;50.10;;;;;;5032480;28;20022;-81
2022/07/17 05:24:15;;;;;;;16.88;15.63;;;21.30;50.00;;;;;;5033010;28;20037;-81
2022/07/17 05:26:41;;;;;;;15.75;14.75;;;21.40;49.70;;;;;;5034772;28;20033;-81
2022/07/17 05:29:07;;;;;;;17.48;16.23;;;21.40;49.70;;;;;;5031434;28;20036;-81
2022/07/17 05:31:33;;;;;;;16.65;15.30;;;21.50;49.80;;;;;;5030586;28;20033;-81
2022/07/17 05:33:59;;;;;;;16.65;15.20;;;21.60;49.70;;;;;;5011835;28;20037;-81
2022/07/17 05:36:25;;;;;;;18.05;16.85;;;21.50;49.80;;;;;;5045191;28;20041;-81
2022/07/17 05:38:52;;;;;;;17.20;16.20;;;21.60;49.70;;;;;;5018066;28;20369;-81
2022/07/17 05:41:18;;;;;;;17.23;16.13;;;21.60;49.60;;;;;;5031327;28;20026;-81
2022/07/17 05:43:44;;;;;;;17.48;16.35;;;21.70;49.40;;;;;;5035091;28;20510;-81
2022/07/17 05:46:10;;;;;;;19.05;17.83;;;21.90;49.20;;;;;;5016585;28;20025;-81
2022/07/17 05:48:36;;;;;;;17.88;16.73;;;22.00;49.00;;;;;;5045363;28;20037;-81
2022/07/17 05:51:02;;;;;;;17.92;16.83;;;22.00;49.00;;;;;;5035933;28;20468;-81
2022/07/17 05:53:28;;;;;;;18.70;17.30;;;22.10;49.00;;;;;;5031035;28;20507;-81
2022/07/17 05:55:54;;;;;;;18.25;17.33;;;22.10;48.90;;;;;;5030730;28;20030;-81
2022/07/17 05:58:21;;;;;;;20.05;18.85;;;22.30;48.80;;;;;;5030874;28;20036;-81
2022/07/17 06:00:48;;;;;;;19.70;18.60;;;22.40;48.70;;;;;;5012750;28;20026;-81
2022/07/17 06:03:15;;;;;;;19.73;18.33;;;22.50;48.30;;;;;;4997128;28;20064;-81
2022/07/17 06:05:41;;;;;;;19.30;18.27;;;22.60;48.00;;;;;;5016986;28;20033;-82
2022/07/17 06:08:07;;;;;;;20.08;19.00;;;22.70;47.80;;;;;;5033035;28;20042;-81
2022/07/17 06:10:34;;;;;;;20.38;19.10;;;22.70;47.90;;;;;;5014518;28;20235;-81
2022/07/17 06:13:00;;;;;;;20.63;19.33;;;22.70;47.90;;;;;;5031929;28;20053;-81
2022/07/17 06:15:26;;;;;;;24.23;22.58;;;22.70;48.10;;;;;;5011973;28;20473;-81
2022/07/17 06:17:52;;;;;;;20.77;19.63;;;22.80;48.00;;;;;;5033937;28;20029;-81
2022/07/17 06:20:18;;;;;;;21.42;19.92;;;22.90;47.80;;;;;;5030551;28;20033;-82
2022/07/17 06:22:44;;;;;;;20.92;19.83;;;22.90;48.30;;;;;;5014262;28;20035;-82
2022/07/17 06:25:11;;;;;;;23.02;21.42;;;23.00;47.70;;;;;;5030792;28;20024;-81
2022/07/17 06:27:41;;;;;;;21.85;20.20;;;23.10;47.30;;;;;;5012695;28;20054;-81
2022/07/17 06:30:09;;;;;;;21.70;20.13;;;22.90;47.50;;;;;;5024398;28;20036;-82
2022/07/17 06:32:35;;;;;;;20.92;19.67;;;23.10;47.60;;;;;;5033055;28;20045;-81
2022/07/17 06:35:01;;;;;;;21.60;20.30;;;23.10;47.50;;;;;;5033830;28;20025;-82
2022/07/17 06:37:27;;;;;;;21.65;20.35;;;23.30;47.20;;;;;;5042227;28;20056;-81
2022/07/17 06:39:53;;;;;;;21.08;19.83;;;23.40;47.10;;;;;;5028072;28;20049;-81
2022/07/17 06:42:19;;;;;;;22.15;20.80;;;23.50;46.90;;;;;;5032382;28;20048;-81
2022/07/17 06:44:45;;;;;;;21.67;20.42;;;23.60;46.60;;;;;;5034691;28;20421;-82
2022/07/17 06:47:11;;;;;;;21.58;20.45;;;23.60;46.40;;;;;;5013393;28;20034;-82
2022/07/17 06:49:38;;;;;;;22.00;20.73;;;23.70;46.50;;;;;;5030458;28;20052;-82
2022/07/17 06:52:04;;;;;;;22.27;21.00;;;23.80;46.50;;;;;;5033138;28;20442;-81
2022/07/17 06:54:30;;;;;;;21.08;19.88;;;24.00;46.00;;;;;;5033570;28;20030;-82
2022/07/17 06:56:56;;;;;;;24.20;22.52;;;24.00;46.10;;;;;;5039291;28;20057;-82
2022/07/17 06:59:22;;;;;;;22.45;21.15;;;24.10;45.70;;;;;;5038045;28;20030;-82
2022/07/17 07:01:48;;;;;;;24.38;22.48;;;24.10;45.90;;;;;;5033949;28;20399;-82
2022/07/17 07:04:14;;;;;;;25.08;23.65;;;24.20;45.70;;;;;;5034223;28;20391;-82
2022/07/17 07:06:41;;;;;;;22.85;21.65;;;24.10;45.70;;;;;;4998363;28;20037;-82
2022/07/17 07:09:07;;;;;;;23.10;21.73;;;24.10;45.90;;;;;;5036951;28;20042;-82
2022/07/17 07:11:33;;;;;;;22.73;21.52;;;24.30;45.70;;;;;;5034324;28;20033;-83
2022/07/17 07:13:59;;;;;;;23.98;22.35;;;24.50;45.30;;;;;;5017154;28;20400;-82
2022/07/17 07:16:26;;;;;;;25.40;24.08;;;24.70;45.30;;;;;;5035955;28;20029;-82
2022/07/17 07:18:52;;;;;;;31.85;30.15;;;24.80;44.40;;;;;;5015017;28;20034;-82
2022/07/17 07:21:18;;;;;;;23.27;22.08;;;24.80;44.60;;;;;;5034917;28;20507;-82
2022/07/17 07:23:44;;;;;;;24.08;22.35;;;24.80;44.50;;;;;;5020044;28;20401;-82
2022/07/17 07:26:10;;;;;;;25.33;23.92;;;24.90;44.40;;;;;;5037760;28;20036;-82
2022/07/17 07:28:36;;;;;;;25.20;23.90;;;25.20;44.00;;;;;;5033272;28;20037;-83
2022/07/17 07:31:02;;;;;;;25.45;23.75;;;25.30;43.60;;;;;;5032283;28;20036;-83
2022/07/17 07:33:28;;;;;;;25.58;24.17;;;25.50;43.60;;;;;;5034190;28;20492;-82
2022/07/17 07:35:54;;;;;;;26.20;24.50;;;25.70;43.00;;;;;;5047976;28;20033;-82
2022/07/17 07:38:21;;;;;;;32.65;30.30;;;25.80;42.60;;;;;;5039207;28;20037;-82
2022/07/17 07:40:47;;;;;;;34.38;32.50;;;25.80;42.50;;;;;;5003322;28;20040;-83
2022/07/17 07:43:13;;;;;;;26.25;24.85;;;25.70;42.80;;;;;;5036997;28;20033;-82
2022/07/17 07:45:39;;;;;;;25.08;23.67;;;25.60;42.80;;;;;;5031035;28;20060;-83
2022/07/17 07:48:05;;;;;;;27.00;25.50;;;25.60;42.80;;;;;;5043383;28;20045;-82
2022/07/17 07:50:31;;;;;;;28.13;26.52;;;25.70;42.90;;;;;;5035315;28;20037;-82
2022/07/17 07:52:57;;;;;;;27.15;25.50;;;25.80;42.50;;;;;;5002921;28;20049;-83
2022/07/17 07:55:25;;;;;;;26.35;24.85;;;26.00;42.10;;;;;;5036865;28;20021;-83
2022/07/17 07:58:07;;;;;;;30.80;29.10;;;26.00;42.20;;;;;;4997975;28;20041;-82
2022/07/17 08:00:33;;;;;;;28.30;26.70;;;26.00;41.70;;;;;;5031230;28;20116;-82
2022/07/17 08:02:59;;;;;;;28.60;27.00;;;26.00;41.70;;;;;;5037760;28;20456;-83
2022/07/17 08:05:26;;;;;;;27.45;25.95;;;26.20;41.80;;;;;;5034909;28;20050;-83
2022/07/17 08:07:52;;;;;;;26.40;25.00;;;26.40;41.50;;;;;;5035388;28;20419;-83
2022/07/17 08:10:18;;;;;;;30.10;28.33;;;26.50;41.20;;;;;;5036875;28;20803;-83
2022/07/17 08:12:44;;;;;;;26.92;25.13;;;26.70;41.10;;;;;;5031197;28;20037;-83
2022/07/17 08:15:10;;;;;;;26.50;25.15;;;26.70;40.80;;;;;;5018266;28;20033;-83
2022/07/17 08:17:36;;;;;;;25.38;23.77;;;26.80;40.40;;;;;;5019640;28;20049;-83
2022/07/17 08:20:03;;;;;;;27.05;25.55;;;26.80;40.40;;;;;;5018611;28;20459;-83
2022/07/17 08:22:29;;;;;;;25.83;24.17;;;26.90;40.20;;;;;;5019081;28;20052;-83
2022/07/17 08:24:55;;;;;;;28.73;27.15;;;27.00;40.30;;;;;;5034519;28;20386;-83
2022/07/17 08:27:22;;;;;;;28.13;26.55;;;27.10;39.70;;;;;;5015552;28;20056;-83
2022/07/17 08:29:48;;;;;;;32.92;30.90;;;27.20;39.60;;;;;;5036046;28;20026;-82
2022/07/17 08:32:14;;;;;;;29.10;26.98;;;27.40;39.30;;;;;;5015727;28;20037;-83
2022/07/17 08:34:40;;;;;;;27.95;26.25;;;27.50;39.10;;;;;;5035158;28;20037;-83
2022/07/17 08:37:06;;;;;;;29.65;27.77;;;27.50;38.70;;;;;;5029555;28;20029;-84
2022/07/17 08:39:32;;;;;;;28.67;27.10;;;27.60;38.90;;;;;;5031371;28;20025;-83
2022/07/17 08:41:58;;;;;;;26.60;25.20;;;27.70;38.90;;;;;;5019251;28;20361;-83
2022/07/17 08:44:24;;;;;;;29.88;28.38;;;27.70;38.60;;;;;;5015885;28;20041;-82
2022/07/17 08:46:51;;;;;;;30.77;29.17;;;27.80;38.10;;;;;;5018047;28;20033;-83
2022/07/17 08:49:21;;;;;;;31.25;29.45;;;27.90;38.30;;;;;;5032162;28;20029;-83
2022/07/17 08:51:47;;;;;;;37.42;34.75;;;27.90;37.60;;;;;;5031170;28;20025;-83
2022/07/17 08:54:14;;;;;;;29.45;27.88;;;27.90;37.70;;;;;;5017740;28;20038;-83
2022/07/17 08:56:40;;;;;;;30.45;28.90;;;28.00;38.00;;;;;;5018545;28;20040;-84
2022/07/17 08:59:06;;;;;;;29.58;28.08;;;28.20;37.50;;;;;;5034205;28;20045;-82
2022/07/17 09:01:32;;;;;;;34.05;31.98;;;28.20;37.20;;;;;;5015192;28;20044;-83
2022/07/17 09:04:00;;;;;;;36.53;34.40;;;28.30;37.40;;;;;;5013617;28;20030;-84
2022/07/17 09:06:26;;;;;;;29.10;27.67;;;28.50;37.20;;;;;;5014006;28;20400;-83
2022/07/17 09:09:03;;;;;;;32.40;30.80;;;28.70;36.70;;;;;;5018661;28;20050;-83
2022/07/17 09:11:29;;;;;;;39.08;36.08;;;28.90;36.80;;;;;;5017689;28;20506;-83
2022/07/17 09:13:56;;;;;;;33.50;31.63;;;29.00;36.20;;;;;;5016688;28;20045;-83
2022/07/17 09:16:22;;;;;;;33.45;31.33;;;28.80;36.10;;;;;;5031268;28;20032;-84
2022/07/17 09:18:55;;;;;;;36.30;34.35;;;28.70;35.90;;;;;;4993479;28;20400;-83
2022/07/17 09:21:24;;;;;;;30.30;28.63;;;28.70;36.00;;;;;;5027948;28;20028;-83
2022/07/17 09:24:04;;;;;;;35.88;33.95;;;28.70;36.20;;;;;;5032808;28;20049;-83
2022/07/17 09:26:30;;;;;;;32.78;30.75;;;28.80;36.60;;;;;;5031536;28;20056;-83
2022/07/17 09:28:56;;;;;;;33.15;31.38;;;28.80;36.30;;;;;;5015025;28;20033;-84
2022/07/17 09:31:32;;;;;;;33.75;31.95;;;28.90;36.50;;;;;;5030854;28;20707;-82
2022/07/17 09:33:58;;;;;;;35.65;33.58;;;29.00;36.00;;;;;;5012036;28;20036;-83
2022/07/17 09:36:25;;;;;;;35.67;33.50;;;29.10;36.00;;;;;;5045666;28;20025;-84
2022/07/17 09:38:55;;;;;;;44.22;40.97;;;29.20;35.10;;;;;;5017997;28;20029;-84
2022/07/17 09:41:21;;;;;;;;;;;29.30;35.30;;;;;;5015455;28;20036;-83
2022/07/17 09:43:48;;;;;;;33.58;31.70;;;29.40;35.10;;;;;;5047660;28;20390;-84
2022/07/17 09:46:15;;;;;;;33.42;31.73;;;29.40;35.30;;;;;;5034672;28;20033;-84
2022/07/17 09:48:48;;;;;;;36.95;34.95;;;29.50;35.30;;;;;;5012959;28;20037;-84
2022/07/17 09:51:24;;;;;;;38.55;36.58;;;29.60;35.30;;;;;;5032393;28;20028;-84
2022/07/17 09:53:52;;;;;;;39.17;37.08;;;29.80;35.00;;;;;;5016113;28;20033;-84
2022/07/17 09:56:20;;;;;;;42.33;40.22;;;30.00;34.90;;;;;;5024139;28;20029;-84
2022/07/17 09:58:51;;;;;;;44.67;42.28;;;29.90;34.70;;;;;;5019620;28;20034;-84
2022/07/17 10:01:18;;;;;;;39.05;36.97;;;29.80;34.40;;;;;;5006634;28;20045;-84
2022/07/17 10:03:44;;;;;;;51.22;48.50;;;29.80;34.70;;;;;;5029662;28;20024;-84
2022/07/17 10:06:11;;;;;;;42.97;40.72;;;29.90;34.80;;;;;;5032967;28;20033;-83
2022/07/17 10:08:37;;;;;;;41.88;39.67;;;29.80;34.30;;;;;;5016799;28;20050;-83
2022/07/17 10:11:08;;;;;;;40.65;38.22;;;29.90;34.60;;;;;;5014537;28;20033;-83
2022/07/17 10:13:39;;;;;;;42.10;39.88;;;30.00;34.10;;;;;;5014827;28;20029;-84
2022/07/17 10:16:06;;;;;;;46.15;43.63;;;30.20;33.90;;;;;;5013406;28;20037;-83
2022/07/17 10:18:42;;;;;;;44.58;42.28;;;30.20;33.40;;;;;;5029340;28;20048;-84
2022/07/17 10:21:09;;;;;;;40.67;38.45;;;30.10;33.90;;;;;;5008425;28;20040;-83
2022/07/17 10:23:35;;;;;;;42.03;39.83;;;30.10;34.00;;;;;;5032715;28;20531;-84
2022/07/17 10:26:01;;;;;;;41.38;39.30;;;30.10;34.00;;;;;;5014329;28;20040;-83
2022/07/17 10:28:41;;;;;;;41.75;39.67;;;30.30;33.40;;;;;;5030316;28;20045;-84
2022/07/17 10:31:08;;;;;;;50.07;47.37;;;30.30;33.20;;;;;;5029569;28;20471;-83
2022/07/17 10:33:34;;;;;;;53.85;51.13;;;30.30;33.20;;;;;;5028830;28;20691;-84
2022/07/17 10:36:00;;;;;;;54.13;51.17;;;30.30;33.20;;;;;;5045515;28;20045;-83
2022/07/17 10:38:27;;;;;;;51.60;48.97;;;30.30;32.80;;;;;;5016385;28;20048;-84
2022/07/17 10:41:02;;;;;;;43.85;41.40;;;30.40;32.90;;;;;;5030572;28;20033;-84
2022/07/17 10:43:43;;;;;;;43.22;40.92;;;30.50;33.00;;;;;;5013932;28;20029;-84
2022/07/17 10:46:09;;;;;;;49.30;46.50;;;30.60;32.70;;;;;;5013880;28;20036;-84
2022/07/17 10:48:35;;;;;;;54.95;52.17;;;30.70;32.70;;;;;;5028498;28;20045;-84
2022/07/17 10:51:01;;;;;;;48.42;46.03;;;30.60;31.90;;;;;;5033521;28;20026;-84
2022/07/17 10:53:31;;;;;;;71.82;67.68;;;30.50;32.20;;;;;;5013717;28;20041;-84
2022/07/17 10:56:06;;;;;;;45.08;42.83;;;30.60;32.30;;;;;;5034284;28;20033;-83
2022/07/17 10:58:39;;;;;;;115.90;109.75;;;30.70;32.20;;;;;;5016282;28;20049;-84
2022/07/17 11:01:18;;;;;;;46.25;43.92;;;30.80;32.20;;;;;;4998941;28;20489;-83
2022/07/17 11:03:46;;;;;;;49.55;47.03;;;30.90;32.00;;;;;;5015109;28;20029;-84
2022/07/17 11:06:23;;;;;;;52.30;49.58;;;30.90;32.00;;;;;;5015113;28;20049;-84
2022/07/17 11:08:56;;;;;;;58.03;55.08;;;31.00;31.80;;;;;;5012525;28;20413;-84
2022/07/17 11:11:34;;;;;;;45.47;43.00;;;31.10;31.60;;;;;;5032694;28;20033;-84
2022/07/17 11:14:11;;;;;;;48.70;46.22;;;31.20;31.60;;;;;;5000956;28;20396;-84
2022/07/17 11:16:37;;;;;;;50.50;47.80;;;31.30;31.40;;;;;;4999612;28;20030;-84
2022/07/17 11:19:03;;;;;;;51.53;48.97;;;31.60;31.50;;;;;;5023803;28;20373;-83
2022/07/17 11:21:31;;;;;;;49.65;47.15;;;31.60;30.60;;;;;;5044023;28;20030;-84
2022/07/17 11:23:58;;;;;;;53.65;50.88;;;31.70;30.90;;;;;;5001287;28;20034;-84
2022/07/17 11:26:24;;;;;;;53.70;50.80;;;31.60;30.90;;;;;;5029784;28;20041;-83
2022/07/17 11:28:52;;;;;;;52.60;49.70;;;31.70;31.00;;;;;;4999960;28;20050;-84
2022/07/17 11:31:26;;;;;;;66.78;63.45;;;31.60;31.00;;;;;;5029645;28;20037;-84
2022/07/17 11:33:54;;;;;;;1999.90;999.90;;;31.70;30.80;;;;;;5010873;28;20042;-84
2022/07/17 11:36:28;;;;;;;1999.90;999.90;;;31.90;29.90;;;;;;5045819;28;20032;-84
2022/07/17 11:38:56;;;;;;;1999.90;999.90;;;31.80;30.00;;;;;;5036135;28;20029;-84
2022/07/17 11:41:23;;;;;;;1516.85;766.00;;;31.80;30.20;;;;;;5033396;28;20029;-84
2022/07/17 11:43:49;;;;;;;1999.90;999.90;;;31.80;30.00;;;;;;5003129;28;20038;-84
2022/07/17 11:46:16;;;;;;;1999.90;999.90;;;32.00;30.00;;;;;;5037553;28;20044;-84
2022/07/17 11:48:43;;;;;;;1999.90;999.90;;;32.10;29.70;;;;;;5029752;28;20053;-84
2022/07/17 11:51:09;;;;;;;1999.90;999.90;;;32.20;29.90;;;;;;5015778;28;20485;-84
2022/07/17 11:53:37;;;;;;;1999.90;999.90;;;32.30;29.90;;;;;;5037637;28;20056;-84
2022/07/17 11:56:04;;;;;;;1999.90;999.90;;;32.40;29.30;;;;;;5016925;28;20037;-84
2022/07/17 11:58:41;;;;;;;1999.90;999.90;;;32.40;29.10;;;;;;5033278;28;20379;-84
2022/07/17 12:01:07;;;;;;;1999.90;999.90;;;32.40;29.10;;;;;;5032470;28;20025;-84
2022/07/17 12:03:33;;;;;;;1999.90;999.90;;;32.30;29.30;;;;;;5031883;28;20373;-84
2022/07/17 12:05:59;;;;;;;1999.90;999.90;;;32.40;29.20;;;;;;5037729;28;20037;-84
2022/07/17 12:08:25;;;;;;;1999.90;999.90;;;32.30;28.90;;;;;;5035617;28;20044;-83
2022/07/17 12:11:08;;;;;;;1999.90;999.90;;;32.30;29.10;;;;;;5036909;28;20029;-84
2022/07/17 12:13:42;;;;;;;1999.90;999.90;;;32.30;28.80;;;;;;5037150;28;20092;-84
2022/07/17 12:16:28;;;;;;;1999.90;999.90;;;32.30;29.00;;;;;;5032300;28;20029;-84
2022/07/17 12:19:08;;;;;;;1999.90;999.90;;;32.40;28.80;;;;;;5020352;28;20036;-84
2022/07/17 12:21:48;;;;;;;1999.90;999.90;;;32.50;28.90;;;;;;5031527;28;20383;-85
2022/07/17 12:24:28;;;;;;;1999.90;999.90;;;32.50;28.60;;;;;;5027654;28;20483;-84
2022/07/17 12:26:56;;;;;;;1999.90;999.90;;;32.40;28.80;;;;;;5019939;28;20026;-84